Time;durP1;ratioP1;P1;durP2;ratioP2;P2;SDS_P1;SDS_P2;PMS_P1;PMS_P2;Temp;Humidity;BMP_temperature;BMP_pressure;BME280_temperature;BME280_humidity;BME280_pressure;Samples;Min_cycle;Max_cycle;Signal;HPM_P1;HPM_P2
2022/10/17 05:30:00;;;;;;;7.82;7.00;;;16.00;79.60;;;;;;5593636;24;20142;-74
2022/10/17 05:32:25;;;;;;;11.75;7.75;;;16.00;79.60;;;;;;4747493;30;20063;-79
2022/10/17 05:34:51;;;;;;;10.38;8.05;;;16.00;79.70;;;;;;4772045;30;20071;-76
2022/10/17 05:37:17;;;;;;;11.75;8.70;;;16.00;79.70;;;;;;4772323;30;20531;-73
2022/10/17 05:39:42;;;;;;;12.63;9.95;;;16.00;80.10;;;;;;4772010;30;20443;-75
2022/10/17 05:42:08;;;;;;;15.30;10.60;;;16.00;80.60;;;;;;4772676;30;20127;-75
2022/10/17 05:44:34;;;;;;;12.15;10.52;;;16.00;81.10;;;;;;4758949;30;20044;-74
2022/10/17 05:47:00;;;;;;;13.55;10.30;;;16.00;81.50;;;;;;4755324;30;20059;-71
2022/10/17 05:49:26;;;;;;;11.85;10.25;;;16.00;82.00;;;;;;4772132;30;20121;-76
2022/10/17 05:51:51;;;;;;;14.57;10.63;;;16.00;82.90;;;;;;4771828;30;20051;-76
2022/10/17 05:54:17;;;;;;;13.65;9.18;;;16.00;82.70;;;;;;4772441;30;20517;-78
2022/10/17 05:56:43;;;;;;;11.65;10.10;;;16.00;83.00;;;;;;4756322;30;20052;-75
2022/10/17 05:59:08;;;;;;;12.73;9.75;;;16.00;83.20;;;;;;4771989;30;20503;-76
2022/10/17 06:01:34;;;;;;;13.95;9.25;;;15.90;83.10;;;;;;4771531;30;20109;-78
2022/10/17 06:04:03;;;;;;;22.77;9.23;;;15.90;83.10;;;;;;4756026;30;20051;-78
2022/10/17 06:06:30;;;;;;;14.68;8.57;;;15.90;83.10;;;;;;4771908;30;20054;-77
2022/10/17 06:08:55;;;;;;;10.82;8.57;;;16.00;83.60;;;;;;4756017;30;20478;-77
2022/10/17 06:11:21;;;;;;;16.45;9.02;;;16.00;82.90;;;;;;4771838;30;20100;-78
2022/10/17 06:13:47;;;;;;;9.98;7.00;;;16.00;82.70;;;;;;4771511;30;20047;-79
2022/10/17 06:16:22;;;;;;;20.73;10.25;;;16.00;82.50;;;;;;4755590;30;20109;-76
2022/10/17 06:18:48;;;;;;;14.90;8.77;;;16.10;82.80;;;;;;4741166;30;20056;-77
2022/10/17 06:21:48;;;;;;;16.40;9.18;;;16.10;82.90;;;;;;4907782;24;20492;-79
2022/10/17 06:24:14;;;;;;;14.48;8.13;;;16.20;83.80;;;;;;4790156;29;20085;-80
2022/10/17 06:26:40;;;;;;;17.77;7.13;;;16.20;83.60;;;;;;4792435;30;20078;-79
2022/10/17 06:29:06;;;;;;;17.85;6.32;;;16.20;83.30;;;;;;4793228;30;20043;-79
2022/10/17 06:31:34;;;;;;;12.85;6.53;;;16.20;83.20;;;;;;4777896;30;20051;-80
2022/10/17 06:34:12;;;;;;;11.05;5.30;;;16.30;83.20;;;;;;4776942;30;20055;-80
2022/10/17 06:40:44;;;;;;;20.00;6.00;;;16.30;83.20;;;;;;4728163;30;20131;-80
2022/10/17 06:44:17;;;;;;;13.70;5.50;;;16.50;83.10;;;;;;4750817;30;20058;-80
2022/10/17 06:51:38;;;;;;;18.38;5.93;;;16.50;83.30;;;;;;4792249;30;20050;-81
2022/10/17 06:54:06;;;;;;;;;;;16.50;83.20;;;;;;4792421;30;20482;-78
2022/10/17 06:56:37;;;;;;;17.45;5.60;;;16.50;82.90;;;;;;4777192;30;20004;-78
2022/10/17 06:59:31;;;;;;;20.70;6.35;;;16.50;82.90;;;;;;4762814;30;20367;-80
2022/10/17 07:02:00;;;;;;;13.68;5.75;;;16.50;83.00;;;;;;4776482;30;20051;-77
2022/10/17 07:04:35;;;;;;;13.57;5.57;;;16.50;83.00;;;;;;4791738;30;20050;-81
2022/10/17 07:07:06;;;;;;;18.17;5.82;;;16.60;83.40;;;;;;4792740;30;20114;-77
2022/10/17 07:09:34;;;;;;;20.30;5.40;;;16.60;83.50;;;;;;4792761;30;20129;-80
2022/10/17 07:12:06;;;;;;;13.05;4.88;;;16.60;83.40;;;;;;4762345;30;20048;-79
2022/10/17 07:14:49;;;;;;;21.20;5.70;;;16.60;83.20;;;;;;4792452;30;20070;-79
2022/10/17 07:17:15;;;;;;;16.38;5.35;;;16.60;83.30;;;;;;4776782;30;20134;-74
2022/10/17 07:19:42;;;;;;;17.20;5.75;;;16.60;83.30;;;;;;4792522;30;20127;-75
2022/10/17 07:22:09;;;;;;;15.38;6.55;;;16.60;83.40;;;;;;4794866;29;20450;-79
2022/10/17 07:24:34;;;;;;;17.10;6.68;;;16.60;83.30;;;;;;4810579;29;20435;-80
2022/10/17 07:27:00;;;;;;;13.75;6.25;;;16.60;83.30;;;;;;4810227;29;20093;-77
2022/10/17 07:29:26;;;;;;;16.77;6.93;;;16.60;83.30;;;;;;4794768;29;20062;-76
2022/10/17 07:31:51;;;;;;;12.98;6.47;;;16.70;83.20;;;;;;4806492;29;20131;-78
2022/10/17 07:34:18;;;;;;;11.10;6.15;;;16.60;83.10;;;;;;4792142;30;20051;-77
2022/10/17 07:36:44;;;;;;;9.23;6.15;;;16.70;83.00;;;;;;4775102;30;20043;-78
2022/10/17 07:39:10;;;;;;;9.88;6.43;;;16.70;82.90;;;;;;4776257;30;20047;-80
2022/10/17 07:41:35;;;;;;;9.60;6.35;;;16.70;82.80;;;;;;4792022;30;20054;-78
2022/10/17 07:44:01;;;;;;;9.02;6.30;;;16.70;82.70;;;;;;4775980;30;20070;-78
2022/10/17 07:46:27;;;;;;;7.53;5.90;;;16.70;82.70;;;;;;4776567;30;20043;-77
2022/10/17 07:48:53;;;;;;;6.78;5.50;;;16.70;82.60;;;;;;4792747;30;20440;-77
2022/10/17 07:51:19;;;;;;;8.93;5.47;;;16.70;82.60;;;;;;4791924;30;20054;-78
2022/10/17 07:53:44;;;;;;;10.00;5.60;;;16.70;82.60;;;;;;4792032;30;20472;-77
2022/10/17 07:56:12;;;;;;;10.57;5.53;;;16.70;82.60;;;;;;4792062;30;20134;-78
2022/10/17 07:58:38;;;;;;;10.90;5.13;;;16.70;82.40;;;;;;4791740;30;20388;-78
2022/10/17 08:01:09;;;;;;;9.20;4.93;;;16.70;82.30;;;;;;4791800;30;20059;-78
2022/10/17 08:03:35;;;;;;;10.20;4.85;;;16.70;82.20;;;;;;4791875;30;20051;-79
2022/10/17 08:06:02;;;;;;;6.72;4.75;;;16.70;82.10;;;;;;4791871;30;20055;-76
2022/10/17 08:08:28;;;;;;;8.65;5.88;;;16.80;81.90;;;;;;4791306;30;20520;-77
2022/10/17 08:10:55;;;;;;;10.90;6.40;;;16.70;81.90;;;;;;4791571;30;20091;-77
2022/10/17 08:13:24;;;;;;;8.88;5.63;;;16.70;82.30;;;;;;4791738;30;20047;-76
2022/10/17 08:15:50;;;;;;;9.07;5.00;;;16.70;82.40;;;;;;4791604;30;20051;-77
2022/10/17 08:18:19;;;;;;;10.43;5.38;;;16.70;82.60;;;;;;4775411;30;20055;-77
2022/10/17 08:20:45;;;;;;;10.20;5.32;;;16.80;82.70;;;;;;4791286;30;20134;-78
2022/10/17 08:23:10;;;;;;;15.98;5.78;;;16.70;82.60;;;;;;4791023;30;20134;-76
2022/10/17 08:25:39;;;;;;;14.38;6.22;;;16.80;82.90;;;;;;4775897;30;20051;-80
2022/10/17 08:28:06;;;;;;;12.05;6.38;;;16.80;83.00;;;;;;4791645;30;20047;-76
2022/10/17 08:30:31;;;;;;;11.95;6.85;;;16.80;83.20;;;;;;4791561;30;20059;-75
2022/10/17 08:32:57;;;;;;;10.15;7.15;;;16.90;83.40;;;;;;4803279;29;20491;-75
2022/10/17 08:35:23;;;;;;;8.48;6.20;;;16.90;83.60;;;;;;4809392;29;20385;-79
2022/10/17 08:37:49;;;;;;;10.05;5.85;;;16.80;83.60;;;;;;4792457;29;20054;-77
2022/10/17 08:40:25;;;;;;;8.90;5.43;;;16.80;83.60;;;;;;4804987;29;20062;-76
2022/10/17 08:43:04;;;;;;;10.48;5.55;;;16.80;83.80;;;;;;4807776;29;20119;-74
2022/10/17 08:45:38;;;;;;;13.95;5.97;;;16.80;83.70;;;;;;4805254;29;20054;-75
2022/10/17 08:48:16;;;;;;;14.15;5.75;;;16.80;83.80;;;;;;4775392;30;20063;-75
2022/10/17 08:50:54;;;;;;;20.73;5.88;;;16.80;83.70;;;;;;4803867;29;20125;-75
2022/10/17 08:53:29;;;;;;;11.15;5.07;;;16.80;83.90;;;;;;4808768;29;20055;-75
2022/10/17 08:55:58;;;;;;;26.48;6.07;;;16.80;83.80;;;;;;4808077;29;20070;-77
2022/10/17 08:58:27;;;;;;;17.80;5.40;;;16.70;83.70;;;;;;4807095;29;20059;-77
2022/10/17 09:01:21;;;;;;;19.55;6.68;;;16.80;84.00;;;;;;4805817;29;20071;-76
2022/10/17 09:03:59;;;;;;;19.73;5.50;;;16.80;83.70;;;;;;4807679;29;20051;-78
2022/10/17 09:06:30;;;;;;;18.45;5.72;;;16.80;83.70;;;;;;4808229;29;20062;-78
2022/10/17 09:09:14;;;;;;;19.17;6.85;;;16.80;83.60;;;;;;4807302;29;20039;-77
2022/10/17 09:12:09;;;;;;;17.38;5.72;;;16.90;83.50;;;;;;4808640;29;20043;-77
2022/10/17 09:14:53;;;;;;;10.07;4.50;;;16.90;83.50;;;;;;4808289;29;20122;-78
2022/10/17 09:17:27;;;;;;;13.02;4.82;;;16.90;83.50;;;;;;4808429;29;20143;-76
2022/10/17 09:20:09;;;;;;;11.02;4.97;;;16.90;83.40;;;;;;4792504;29;20066;-75
2022/10/17 09:22:49;;;;;;;11.13;5.05;;;16.90;83.30;;;;;;4808136;29;20062;-75
2022/10/17 09:25:17;;;;;;;11.60;5.82;;;16.90;83.20;;;;;;4791796;29;20066;-79
2022/10/17 09:28:01;;;;;;;9.20;6.53;;;16.90;83.90;;;;;;4792653;29;20065;-74
2022/10/17 09:30:27;;;;;;;10.32;6.15;;;16.90;84.40;;;;;;4792413;29;20066;-75
2022/10/17 09:32:53;;;;;;;9.77;5.95;;;16.90;84.40;;;;;;4808481;29;20466;-73
2022/10/17 09:35:20;;;;;;;12.00;7.07;;;16.90;84.50;;;;;;4808335;29;20433;-75
2022/10/17 09:37:49;;;;;;;10.77;5.90;;;16.90;84.50;;;;;;4807865;29;20165;-77
2022/10/17 09:40:30;;;;;;;11.27;5.68;;;16.90;84.40;;;;;;4808105;29;20070;-75
2022/10/17 09:42:57;;;;;;;11.75;6.45;;;16.90;84.30;;;;;;4808422;29;20053;-76
2022/10/17 09:45:25;;;;;;;9.93;5.20;;;16.90;84.20;;;;;;4806878;29;20207;-76
2022/10/17 09:47:57;;;;;;;15.88;6.45;;;17.00;84.20;;;;;;4808661;29;20058;-77
2022/10/17 09:50:32;;;;;;;11.07;5.40;;;17.00;84.10;;;;;;4807776;29;20088;-78
2022/10/17 09:53:17;;;;;;;12.65;6.22;;;17.00;84.10;;;;;;4807960;29;20050;-75
2022/10/17 09:55:49;;;;;;;11.23;6.18;;;17.00;84.10;;;;;;4807602;29;20429;-77
2022/10/17 09:58:15;;;;;;;13.35;5.93;;;17.00;84.10;;;;;;4790806;29;20090;-78
2022/10/17 10:00:44;;;;;;;13.80;6.20;;;17.00;84.10;;;;;;4788554;30;20047;-74
2022/10/17 10:03:13;;;;;;;11.52;5.55;;;17.00;84.10;;;;;;4806292;29;20459;-74
2022/10/17 10:05:40;;;;;;;9.30;5.70;;;17.00;84.10;;;;;;4791900;29;20139;-75
2022/10/17 10:08:14;;;;;;;14.75;5.80;;;17.00;84.20;;;;;;4788505;30;20055;-75
2022/10/17 10:10:42;;;;;;;9.15;5.28;;;17.00;84.10;;;;;;4794838;29;20039;-77
2022/10/17 10:13:13;;;;;;;14.30;6.47;;;17.00;84.10;;;;;;4791793;29;20047;-76
2022/10/17 10:15:48;;;;;;;11.57;5.60;;;17.10;84.70;;;;;;4791912;29;20063;-76
2022/10/17 10:18:33;;;;;;;12.90;5.18;;;17.10;84.10;;;;;;4807818;29;20102;-76
2022/10/17 10:21:10;;;;;;;12.45;5.38;;;17.10;84.10;;;;;;4807150;29;20046;-76
2022/10/17 10:23:41;;;;;;;17.65;5.60;;;17.10;84.00;;;;;;4792504;29;20424;-76
2022/10/17 10:26:26;;;;;;;14.60;5.70;;;17.10;84.00;;;;;;4789471;30;20138;-76
2022/10/17 10:29:00;;;;;;;17.92;5.45;;;17.10;83.90;;;;;;4789795;30;20290;-74
2022/10/17 10:31:38;;;;;;;10.73;5.55;;;17.10;83.90;;;;;;4788827;30;20086;-75
2022/10/17 10:34:27;;;;;;;10.20;5.32;;;17.10;83.80;;;;;;4774084;30;20110;-77
2022/10/17 10:37:17;;;;;;;12.48;5.88;;;17.10;83.80;;;;;;4759388;30;20118;-79
2022/10/17 10:39:48;;;;;;;12.20;6.50;;;17.10;83.90;;;;;;4774410;30;20059;-76
2022/10/17 10:42:25;;;;;;;14.60;5.40;;;17.10;84.20;;;;;;4788640;30;20421;-76
2022/10/17 10:44:52;;;;;;;11.35;6.68;;;17.10;84.30;;;;;;4788281;30;20062;-77
2022/10/17 10:47:27;;;;;;;11.85;5.97;;;17.10;84.40;;;;;;4789508;30;20367;-74
2022/10/17 10:50:25;;;;;;;10.35;6.47;;;17.10;84.50;;;;;;4789392;30;20059;-75
2022/10/17 10:53:11;;;;;;;11.88;6.18;;;17.10;84.50;;;;;;4789512;30;20051;-75
2022/10/17 10:55:51;;;;;;;10.55;6.30;;;17.10;84.60;;;;;;4789978;30;20340;-75
2022/10/17 10:58:27;;;;;;;8.25;5.88;;;17.10;84.50;;;;;;4789688;30;20130;-75
2022/10/17 11:00:55;;;;;;;9.77;5.55;;;17.20;84.50;;;;;;4789190;30;20051;-75
2022/10/17 11:03:31;;;;;;;8.63;5.78;;;17.10;84.40;;;;;;4789291;30;20055;-74
2022/10/17 11:06:09;;;;;;;12.43;6.15;;;17.20;84.40;;;;;;4789327;30;20345;-75
2022/10/17 11:08:46;;;;;;;10.60;5.82;;;17.20;84.30;;;;;;4789359;30;20066;-76
2022/10/17 11:11:29;;;;;;;11.82;5.80;;;17.20;84.10;;;;;;4791242;29;20467;-74
2022/10/17 11:14:04;;;;;;;9.57;5.10;;;17.20;84.00;;;;;;4792504;30;20098;-74
2022/10/17 11:17:17;;;;;;;11.68;5.25;;;17.20;84.00;;;;;;4792548;30;20094;-74
2022/10/17 11:20:01;;;;;;;9.43;5.03;;;17.20;83.80;;;;;;4771005;30;20141;-74
2022/10/17 11:22:31;;;;;;;10.73;5.18;;;17.20;83.80;;;;;;4797190;29;20057;-76
2022/10/17 11:25:31;;;;;;;8.30;5.05;;;17.20;83.70;;;;;;4809985;29;20054;-76
2022/10/17 11:27:57;;;;;;;10.82;5.05;;;17.20;83.50;;;;;;4806223;29;20379;-76
2022/10/17 11:30:26;;;;;;;11.02;5.53;;;17.20;83.50;;;;;;4810563;29;20096;-77
2022/10/17 11:32:59;;;;;;;8.98;5.63;;;17.20;83.50;;;;;;4810229;29;20065;-75
2022/10/17 11:35:36;;;;;;;7.93;5.22;;;17.20;83.50;;;;;;4810323;29;20184;-75
2022/10/17 11:38:35;;;;;;;11.32;6.00;;;17.20;83.40;;;;;;4809948;29;20370;-74
2022/10/17 11:41:02;;;;;;;11.30;7.30;;;17.20;83.70;;;;;;4793708;29;20051;-77
2022/10/17 11:43:41;;;;;;;9.30;6.68;;;17.20;84.00;;;;;;4810068;29;20164;-77
2022/10/17 11:46:22;;;;;;;10.48;6.65;;;17.20;84.30;;;;;;4810186;29;20096;-77
2022/10/17 11:49:05;;;;;;;13.38;6.38;;;17.20;84.50;;;;;;4808815;29;20055;-77
2022/10/17 11:51:42;;;;;;;11.73;6.32;;;17.20;84.60;;;;;;4807738;29;20046;-78
2022/10/17 11:54:38;;;;;;;10.00;6.50;;;17.20;84.80;;;;;;4809831;29;20111;-77
2022/10/17 11:57:33;;;;;;;10.52;6.85;;;17.20;85.00;;;;;;4805299;29;20116;-77
2022/10/17 12:00:28;;;;;;;8.48;6.22;;;17.20;85.30;;;;;;4792122;29;20486;-75
2022/10/17 12:03:12;;;;;;;8.70;5.57;;;17.20;85.20;;;;;;4800453;29;20530;-75
2022/10/17 12:05:56;;;;;;;9.40;6.10;;;17.20;85.30;;;;;;4809646;29;20130;-76
2022/10/17 12:08:39;;;;;;;8.32;5.65;;;17.10;85.20;;;;;;4793425;29;20137;-75
2022/10/17 12:11:14;;;;;;;6.88;5.10;;;17.20;85.10;;;;;;4809677;29;20063;-75
2022/10/17 12:13:40;;;;;;;11.07;5.60;;;17.20;85.00;;;;;;4793735;29;20058;-76
2022/10/17 12:16:18;;;;;;;7.28;5.22;;;17.20;84.90;;;;;;4809490;29;20083;-77
2022/10/17 12:18:51;;;;;;;6.70;4.88;;;17.20;84.70;;;;;;4809517;29;20062;-75
2022/10/17 12:21:17;;;;;;;9.93;5.90;;;17.20;84.70;;;;;;4809423;29;20359;-73
2022/10/17 12:23:52;;;;;;;7.32;4.63;;;17.20;84.60;;;;;;4809037;29;20059;-75
2022/10/17 12:26:26;;;;;;;8.15;4.70;;;17.20;84.60;;;;;;4809319;29;20055;-76
2022/10/17 12:28:52;;;;;;;7.13;5.22;;;17.20;84.50;;;;;;4809586;29;20095;-73
2022/10/17 12:31:20;;;;;;;7.95;4.57;;;17.20;84.40;;;;;;4808831;29;20133;-75
2022/10/17 12:33:54;;;;;;;6.82;4.50;;;17.20;84.30;;;;;;4808926;29;20055;-76
2022/10/17 12:36:26;;;;;;;7.25;4.20;;;17.20;84.20;;;;;;4809268;29;20115;-74
2022/10/17 12:39:16;;;;;;;9.38;4.53;;;17.20;84.20;;;;;;4808354;29;20051;-75
2022/10/17 12:41:43;;;;;;;5.00;4.00;;;17.20;83.90;;;;;;4808552;29;20137;-76
2022/10/17 12:44:21;;;;;;;6.30;4.38;;;17.20;83.90;;;;;;4808502;29;20055;-77
2022/10/17 12:46:50;;;;;;;10.05;4.53;;;17.10;83.80;;;;;;4808597;29;20069;-77
2022/10/17 12:49:36;;;;;;;10.40;4.13;;;17.20;83.80;;;;;;4807950;29;20129;-77
2022/10/17 12:52:18;;;;;;;10.25;4.22;;;17.20;83.80;;;;;;4808383;29;20054;-78
2022/10/17 12:54:49;;;;;;;12.32;4.72;;;17.20;83.90;;;;;;4809475;29;20051;-80
2022/10/17 12:57:34;;;;;;;7.68;4.35;;;17.20;84.10;;;;;;4808806;29;20142;-76
2022/10/17 13:00:35;;;;;;;8.85;4.20;;;17.20;84.20;;;;;;4809132;29;20053;-78
2022/10/17 13:03:12;;;;;;;12.48;4.15;;;17.20;84.10;;;;;;4769247;29;20139;-76
2022/10/17 13:05:42;;;;;;;10.90;4.30;;;17.20;84.30;;;;;;4792323;29;20485;-76
2022/10/17 13:08:17;;;;;;;11.50;5.05;;;17.30;84.40;;;;;;4792322;29;20130;-76
2022/10/17 13:10:46;;;;;;;8.57;4.63;;;17.20;84.30;;;;;;4792077;29;20065;-79
2022/10/17 13:13:21;;;;;;;12.95;4.60;;;17.30;84.30;;;;;;4792368;29;20127;-78
2022/10/17 13:15:53;;;;;;;13.15;4.20;;;17.30;84.30;;;;;;4808519;29;20062;-76
2022/10/17 13:18:25;;;;;;;15.45;4.25;;;17.30;84.20;;;;;;4808601;29;20086;-77
2022/10/17 13:21:00;;;;;;;12.25;3.85;;;17.30;84.10;;;;;;4792782;29;20066;-78
2022/10/17 13:23:33;;;;;;;11.43;4.00;;;17.30;84.10;;;;;;4808065;29;20063;-77
2022/10/17 13:26:12;;;;;;;7.45;3.65;;;17.30;84.00;;;;;;4808731;29;20062;-76
2022/10/17 13:28:38;;;;;;;12.15;3.95;;;17.30;84.00;;;;;;4808624;29;20062;-76
2022/10/17 13:31:03;;;;;;;8.85;3.47;;;17.30;83.90;;;;;;4792686;29;20051;-76
2022/10/17 13:33:39;;;;;;;7.63;3.65;;;17.30;83.80;;;;;;4807924;29;20059;-79
2022/10/17 13:36:15;;;;;;;7.38;3.30;;;17.30;83.70;;;;;;4807852;29;20138;-74
2022/10/17 13:38:41;;;;;;;9.18;3.45;;;17.30;83.80;;;;;;4792486;29;20451;-75
2022/10/17 13:41:15;;;;;;;8.27;3.97;;;17.30;83.80;;;;;;4792524;29;20063;-73
2022/10/17 13:43:41;;;;;;;9.38;3.28;;;17.30;83.80;;;;;;4808803;29;20047;-76
2022/10/17 13:46:13;;;;;;;8.88;3.65;;;17.30;84.00;;;;;;4808166;29;20055;-74
2022/10/17 13:48:39;;;;;;;11.43;3.90;;;17.30;84.10;;;;;;4808567;29;20066;-75
2022/10/17 13:51:06;;;;;;;13.38;4.13;;;17.30;84.40;;;;;;4808206;29;20382;-75
2022/10/17 13:53:34;;;;;;;11.77;4.22;;;17.30;84.40;;;;;;4808153;29;20471;-76
2022/10/17 13:56:04;;;;;;;18.75;4.28;;;17.30;84.80;;;;;;4790230;30;20051;-74
2022/10/17 13:58:39;;;;;;;12.18;4.70;;;17.40;85.00;;;;;;4789969;30;20075;-73
2022/10/17 14:01:06;;;;;;;15.88;5.38;;;17.40;85.00;;;;;;4791181;29;20126;-78
2022/10/17 14:03:32;;;;;;;11.20;4.60;;;17.40;86.00;;;;;;4807649;29;20059;-73
2022/10/17 14:06:14;;;;;;;11.23;4.05;;;17.40;86.00;;;;;;4807820;29;20058;-79
2022/10/17 14:08:59;;;;;;;9.30;2.92;;;17.40;86.60;;;;;;4808641;29;20061;-78
2022/10/17 14:11:37;;;;;;;11.77;3.28;;;17.50;86.90;;;;;;4807141;29;20382;-77
2022/10/17 14:14:05;;;;;;;9.63;3.15;;;17.50;86.40;;;;;;4792443;29;20123;-76
2022/10/17 14:16:40;;;;;;;9.38;3.03;;;17.50;86.30;;;;;;4808239;29;20066;-75
2022/10/17 14:19:15;;;;;;;8.05;2.85;;;17.50;86.60;;;;;;4791935;29;20058;-77
2022/10/17 14:21:41;;;;;;;7.13;2.38;;;17.50;86.80;;;;;;4807711;29;20355;-76
2022/10/17 14:24:26;;;;;;;9.75;3.03;;;17.50;86.80;;;;;;4807130;29;20055;-76
2022/10/17 14:26:58;;;;;;;6.95;2.53;;;17.60;86.90;;;;;;4808128;29;20050;-76
2022/10/17 14:29:31;;;;;;;9.85;3.05;;;17.60;86.70;;;;;;4791659;29;20066;-76
2022/10/17 14:32:11;;;;;;;6.60;2.77;;;17.60;86.60;;;;;;4807936;29;20363;-76
2022/10/17 14:34:39;;;;;;;6.60;3.03;;;17.60;87.10;;;;;;4808140;29;20581;-77
2022/10/17 14:37:32;;;;;;;7.38;2.97;;;17.60;86.70;;;;;;4807553;29;20050;-75
2022/10/17 14:40:03;;;;;;;4.50;2.20;;;17.70;86.30;;;;;;4792209;29;20055;-77
2022/10/17 14:42:28;;;;;;;13.93;2.92;;;17.70;86.00;;;;;;4807831;29;20047;-76
2022/10/17 14:45:06;;;;;;;7.28;2.70;;;17.60;85.60;;;;;;4807924;29;20065;-76
2022/10/17 14:47:32;;;;;;;5.97;2.78;;;17.70;85.60;;;;;;4810287;29;20478;-76
2022/10/17 14:50:05;;;;;;;6.57;2.45;;;17.60;85.50;;;;;;4811017;29;20058;-77
2022/10/17 14:52:31;;;;;;;9.75;2.45;;;17.60;85.40;;;;;;4811131;29;20069;-76
2022/10/17 14:54:59;;;;;;;10.77;2.67;;;17.60;85.40;;;;;;4810928;29;20127;-77
2022/10/17 14:57:42;;;;;;;11.07;2.65;;;17.60;85.60;;;;;;4811194;29;20073;-77
2022/10/17 15:00:14;;;;;;;7.55;1.77;;;17.60;85.50;;;;;;4810898;29;20069;-81
2022/10/17 15:02:39;;;;;;;9.90;2.47;;;17.60;85.40;;;;;;4794924;29;20101;-78
2022/10/17 15:05:05;;;;;;;8.80;2.10;;;17.60;85.30;;;;;;4794891;29;20083;-79
2022/10/17 15:07:31;;;;;;;7.13;2.35;;;17.60;85.40;;;;;;4794653;29;20495;-79
2022/10/17 15:09:57;;;;;;;10.55;3.13;;;17.60;85.40;;;;;;4810066;29;20086;-79
2022/10/17 15:12:24;;;;;;;6.57;2.20;;;17.70;85.30;;;;;;4810142;29;20051;-79
2022/10/17 15:14:50;;;;;;;7.13;2.65;;;17.70;85.20;;;;;;4810512;29;20046;-79
2022/10/17 15:17:19;;;;;;;5.78;2.00;;;17.60;85.10;;;;;;4809584;29;20047;-79
2022/10/17 15:19:46;;;;;;;8.45;2.47;;;17.70;85.10;;;;;;4809375;29;20054;-81
2022/10/17 15:22:12;;;;;;;6.10;2.40;;;17.60;85.00;;;;;;4809199;29;20062;-78
2022/10/17 15:24:37;;;;;;;6.35;2.03;;;17.70;85.00;;;;;;4810031;29;20054;-78
2022/10/17 15:27:12;;;;;;;5.55;2.38;;;17.70;84.90;;;;;;4794208;29;20082;-80
2022/10/17 15:29:38;;;;;;;5.93;2.25;;;17.70;84.90;;;;;;4810386;29;20462;-79
2022/10/17 15:32:05;;;;;;;7.72;2.55;;;17.70;84.80;;;;;;4809921;29;20046;-81
2022/10/17 15:34:30;;;;;;;5.25;2.10;;;17.70;84.70;;;;;;4810232;29;20043;-80
2022/10/17 15:36:57;;;;;;;4.10;1.77;;;17.70;84.70;;;;;;4810186;29;20061;-78
2022/10/17 15:39:23;;;;;;;4.10;1.92;;;17.70;84.60;;;;;;4794424;29;20058;-80
2022/10/17 15:41:49;;;;;;;8.73;1.92;;;17.70;84.50;;;;;;4809943;29;20450;-80
2022/10/17 15:44:14;;;;;;;5.63;1.85;;;17.70;84.50;;;;;;4810737;29;20423;-79
2022/10/17 15:46:41;;;;;;;5.00;2.22;;;17.70;84.40;;;;;;4794276;29;20108;-79
2022/10/17 15:49:11;;;;;;;7.60;1.80;;;17.70;84.40;;;;;;4794351;29;20133;-79
2022/10/17 15:51:37;;;;;;;6.53;2.00;;;17.70;84.30;;;;;;4793419;29;20092;-78
2022/10/17 15:54:04;;;;;;;2.67;1.58;;;17.70;84.30;;;;;;4809584;29;20058;-79
2022/10/17 15:56:41;;;;;;;4.63;2.00;;;17.70;84.20;;;;;;4778206;29;20523;-80
2022/10/17 15:59:14;;;;;;;4.93;2.33;;;17.60;83.90;;;;;;4792644;30;20062;-79
2022/10/17 16:01:40;;;;;;;8.63;2.65;;;17.60;83.80;;;;;;4794295;29;20062;-76
2022/10/17 16:04:13;;;;;;;7.63;2.85;;;17.60;83.80;;;;;;4809874;29;20054;-77
2022/10/17 16:06:39;;;;;;;6.17;3.10;;;17.60;84.00;;;;;;4793974;29;20055;-72
2022/10/17 16:09:04;;;;;;;10.88;3.45;;;17.60;84.10;;;;;;4809968;29;20149;-76
2022/10/17 16:11:42;;;;;;;7.72;2.95;;;17.60;84.20;;;;;;4809802;29;20058;-75
2022/10/17 16:14:13;;;;;;;7.75;2.78;;;17.60;84.20;;;;;;4809687;29;20043;-77
2022/10/17 16:16:39;;;;;;;9.63;2.53;;;17.60;84.30;;;;;;4809393;29;20336;-76
2022/10/17 16:19:05;;;;;;;10.15;3.08;;;17.60;84.30;;;;;;4793802;29;20467;-75
2022/10/17 16:21:34;;;;;;;4.47;2.40;;;17.60;84.30;;;;;;4809286;29;20119;-77
2022/10/17 16:24:00;;;;;;;9.57;2.97;;;17.60;84.30;;;;;;4809522;29;20374;-78
2022/10/17 16:26:27;;;;;;;6.20;2.55;;;17.60;84.20;;;;;;4793801;29;20097;-75
2022/10/17 16:28:54;;;;;;;8.10;2.67;;;17.60;83.90;;;;;;4793411;29;20404;-76
2022/10/17 16:31:22;;;;;;;8.98;3.20;;;17.60;83.70;;;;;;4809003;29;20455;-75
2022/10/17 16:33:50;;;;;;;9.20;2.63;;;17.60;83.70;;;;;;4809153;29;20077;-78
2022/10/17 16:36:15;;;;;;;5.93;2.58;;;17.60;83.60;;;;;;4809397;29;20055;-78
2022/10/17 16:38:42;;;;;;;8.40;3.08;;;17.60;83.50;;;;;;4809955;29;20111;-78
2022/10/17 16:41:16;;;;;;;7.20;2.85;;;17.50;83.40;;;;;;4809002;29;20059;-76
2022/10/17 16:43:42;;;;;;;5.07;2.42;;;17.50;83.60;;;;;;4793433;29;20099;-76
2022/10/17 16:46:08;;;;;;;10.85;3.05;;;17.40;83.70;;;;;;4808384;29;20133;-76
2022/10/17 18:14:06;;;;;;;5.32;1.20;;;17.50;82.90;;;;;;5256041;24;20608;-75
2022/10/17 18:16:32;;;;;;;;;;;17.60;82.80;;;;;;4807380;29;20059;-72
2022/10/17 18:19:00;;;;;;;6.75;1.50;;;17.50;82.70;;;;;;4807677;29;20025;-73
2022/10/17 18:21:26;;;;;;;5.25;1.77;;;17.50;82.80;;;;;;4810452;29;20087;-75
2022/10/17 18:23:52;;;;;;;6.13;1.85;;;17.50;82.70;;;;;;4795437;29;20087;-74
2022/10/17 18:26:18;;;;;;;4.32;1.70;;;17.50;82.80;;;;;;4811305;29;20138;-72
2022/10/17 18:28:44;;;;;;;6.53;1.58;;;17.50;82.80;;;;;;4795232;29;20436;-74
2022/10/17 18:31:18;;;;;;;2.80;1.65;;;17.50;82.80;;;;;;4811185;29;20094;-74
2022/10/17 18:33:44;;;;;;;7.00;1.67;;;17.50;82.70;;;;;;4811719;29;20440;-75
2022/10/17 18:36:13;;;;;;;8.52;1.85;;;17.50;82.70;;;;;;4811753;29;20059;-75
2022/10/17 18:38:39;;;;;;;5.55;1.95;;;17.50;82.70;;;;;;4811126;29;20058;-74
2022/10/17 18:41:10;;;;;;;5.13;1.70;;;17.50;82.80;;;;;;4811026;29;20091;-74
2022/10/17 18:43:38;;;;;;;6.57;1.80;;;17.50;82.70;;;;;;4810636;29;20054;-74
2022/10/17 18:46:05;;;;;;;6.43;1.60;;;17.50;82.70;;;;;;4811186;29;20058;-76
2022/10/17 18:48:32;;;;;;;4.85;1.42;;;17.50;82.70;;;;;;4795791;29;20050;-75
2022/10/17 18:50:58;;;;;;;6.47;1.73;;;17.60;82.70;;;;;;4810970;29;20048;-75
2022/10/17 18:53:24;;;;;;;4.53;1.40;;;17.50;83.20;;;;;;4810830;29;20058;-74
2022/10/17 18:55:50;;;;;;;5.07;1.55;;;17.50;82.50;;;;;;4811240;29;20054;-74
2022/10/17 18:58:18;;;;;;;6.65;1.40;;;17.60;82.60;;;;;;4811126;29;20059;-75
2022/10/17 19:00:44;;;;;;;4.75;1.55;;;17.50;82.50;;;;;;4810783;29;20456;-74
2022/10/17 19:03:11;;;;;;;2.22;1.02;;;17.50;82.40;;;;;;4794933;29;20051;-76
2022/10/17 19:05:40;;;;;;;3.58;1.40;;;17.50;82.40;;;;;;4811027;29;20362;-74
2022/10/17 19:08:06;;;;;;;4.20;1.23;;;17.50;82.30;;;;;;4810591;29;20051;-75
2022/10/17 19:10:32;;;;;;;3.00;1.23;;;17.50;82.40;;;;;;4810439;29;20061;-74
2022/10/17 19:12:59;;;;;;;3.80;2.30;;;17.50;82.20;;;;;;4795049;29;20054;-69
2022/10/17 19:15:25;;;;;;;6.15;2.78;;;17.50;82.10;;;;;;4810023;29;20058;-74
2022/10/17 19:17:51;;;;;;;8.55;3.30;;;17.50;82.00;;;;;;4810312;29;20137;-74
2022/10/17 19:20:17;;;;;;;9.60;4.13;;;17.50;81.60;;;;;;4810761;29;20130;-75
2022/10/17 19:22:42;;;;;;;8.18;3.83;;;17.40;81.40;;;;;;4808848;29;20389;-76
2022/10/17 19:25:08;;;;;;;9.18;3.78;;;17.40;81.50;;;;;;4794308;29;20051;-74
2022/10/17 19:27:34;;;;;;;8.93;4.43;;;17.40;81.60;;;;;;4809544;29;20463;-74
2022/10/17 19:30:00;;;;;;;8.68;4.00;;;17.30;81.70;;;;;;4810199;29;20088;-75
2022/10/17 19:32:26;;;;;;;9.85;4.65;;;17.20;81.90;;;;;;4809357;29;20054;-76
2022/10/17 19:34:52;;;;;;;8.60;4.20;;;17.20;82.00;;;;;;4810397;29;20050;-74
2022/10/17 19:37:17;;;;;;;8.65;4.63;;;17.20;82.00;;;;;;4809868;29;20110;-76
2022/10/17 19:39:43;;;;;;;11.25;5.55;;;17.10;82.10;;;;;;4810345;29;20058;-75
2022/10/17 19:42:09;;;;;;;10.57;5.13;;;17.10;82.20;;;;;;4809771;29;20046;-75
2022/10/17 19:44:35;;;;;;;8.77;4.43;;;17.10;82.30;;;;;;4809659;29;20387;-76
2022/10/17 19:47:01;;;;;;;7.13;4.70;;;17.00;82.30;;;;;;4810000;29;20054;-76
2022/10/17 19:49:27;;;;;;;9.48;4.80;;;17.00;82.40;;;;;;4794068;29;20051;-75
2022/10/17 19:51:53;;;;;;;12.57;6.57;;;17.00;82.40;;;;;;4810177;29;20454;-76
2022/10/17 19:54:19;;;;;;;10.20;5.20;;;17.00;82.50;;;;;;4809761;29;20082;-77
2022/10/17 19:56:49;;;;;;;11.55;5.43;;;17.00;82.60;;;;;;4809774;29;20050;-75
2022/10/17 19:59:16;;;;;;;11.13;5.47;;;17.00;82.60;;;;;;4810156;29;20101;-75
2022/10/17 20:01:42;;;;;;;10.52;5.78;;;16.90;82.60;;;;;;4809584;29;20051;-77
2022/10/17 20:04:09;;;;;;;9.75;6.28;;;16.90;82.60;;;;;;4809707;29;20055;-74
2022/10/17 20:06:36;;;;;;;10.73;6.05;;;16.90;82.70;;;;;;4809115;29;20066;-75
2022/10/17 20:09:03;;;;;;;10.88;5.32;;;16.90;82.70;;;;;;4809799;29;20119;-75